Time;durP1;ratioP1;P1;durP2;ratioP2;P2;SDS_P1;SDS_P2;PMS_P1;PMS_P2;Temp;Humidity;BMP_temperature;BMP_pressure;BME280_temperature;BME280_humidity;BME280_pressure;Samples;Min_cycle;Max_cycle;Signal;HPM_P1;HPM_P2
2022/02/01 00:01:15;;;;;;;1.27;0.63;;;9.50;99.90;;;;;;4826793;29;20470;-62
2022/02/01 00:03:49;;;;;;;1.90;0.50;;;9.60;99.90;;;;;;4836577;29;20474;-62
2022/02/01 00:06:26;;;;;;;1.17;0.60;;;9.50;99.90;;;;;;4819533;29;20608;-61
2022/02/01 00:09:10;;;;;;;0.90;0.40;;;9.60;99.90;;;;;;4830084;29;20459;-61
2022/02/01 00:11:52;;;;;;;2.58;1.27;;;9.70;99.90;;;;;;4831021;29;20465;-63
2022/02/01 00:14:37;;;;;;;0.65;0.57;;;9.50;99.90;;;;;;4831647;29;20208;-63
2022/02/01 00:20:36;;;;;;;0.60;0.60;;;9.30;99.90;;;;;;4839497;29;20236;-60
2022/02/01 00:34:35;;;;;;;0.85;0.50;;;9.20;99.90;;;;;;4916211;29;20250;-59
2022/02/01 00:37:11;;;;;;;0.63;0.63;;;9.20;99.90;;;;;;4928870;29;20297;-59
2022/02/01 00:39:43;;;;;;;1.00;0.70;;;9.20;99.90;;;;;;4910306;29;20286;-58
2022/02/01 00:42:15;;;;;;;1.70;0.80;;;9.30;99.90;;;;;;4922204;29;20478;-59
2022/02/01 00:44:46;;;;;;;1.30;0.88;;;9.40;99.90;;;;;;4927651;29;20853;-59
2022/02/01 00:47:17;;;;;;;3.43;1.03;;;9.40;99.90;;;;;;4916218;29;20243;-60
2022/02/01 00:49:50;;;;;;;1.48;0.70;;;9.50;99.90;;;;;;4921890;29;20493;-60
2022/02/01 00:52:22;;;;;;;0.75;0.47;;;9.50;99.90;;;;;;4918997;29;20235;-60
2022/02/01 00:54:53;;;;;;;3.35;1.00;;;9.30;99.90;;;;;;4913487;29;20219;-59
2022/02/01 00:57:24;;;;;;;0.50;0.50;;;9.00;99.90;;;;;;4924358;29;20266;-59
2022/02/01 00:59:55;;;;;;;1.80;1.00;;;8.70;99.90;;;;;;4917245;29;20211;-59
2022/02/01 01:02:26;;;;;;;4.05;2.20;;;8.60;99.90;;;;;;4927725;29;20199;-59
2022/02/01 01:04:59;;;;;;;3.60;0.88;;;8.40;99.90;;;;;;4915581;29;20234;-59
2022/02/01 01:07:29;;;;;;;2.40;1.23;;;8.30;99.90;;;;;;4912317;29;20227;-59
2022/02/01 01:10:02;;;;;;;3.50;1.20;;;8.20;99.90;;;;;;4915987;29;20214;-59
2022/02/01 01:12:37;;;;;;;4.00;1.73;;;8.10;99.90;;;;;;4915279;29;20203;-59
2022/02/01 01:15:16;;;;;;;3.33;1.80;;;8.00;99.90;;;;;;4925477;29;20198;-59
2022/02/01 01:46:01;;;;;;;2.05;1.95;;;7.40;99.90;;;;;;4921401;29;20702;-56
2022/02/01 01:54:14;;;;;;;4.75;2.60;;;7.30;99.90;;;;;;4918840;29;20195;-58
2022/02/01 01:56:46;;;;;;;3.72;1.90;;;7.40;99.90;;;;;;4910068;29;20203;-58
2022/02/01 01:59:17;;;;;;;3.22;2.63;;;7.30;99.90;;;;;;4918096;29;20672;-59
2022/02/01 02:01:48;;;;;;;5.07;2.78;;;7.30;99.90;;;;;;4917671;29;20218;-58
2022/02/01 02:04:20;;;;;;;3.42;2.30;;;7.20;99.90;;;;;;4912615;29;20651;-64
2022/02/01 02:06:51;;;;;;;3.88;2.70;;;7.10;99.90;;;;;;4919051;29;20286;-63
2022/02/01 02:09:23;;;;;;;4.90;2.72;;;7.00;99.90;;;;;;4922386;29;20196;-62
2022/02/01 02:11:59;;;;;;;2.80;2.28;;;7.00;99.90;;;;;;4916547;29;20214;-62
2022/02/01 02:14:32;;;;;;;5.25;2.70;;;6.90;99.90;;;;;;4914484;29;20271;-62
2022/02/01 02:17:04;;;;;;;4.60;1.98;;;6.90;99.90;;;;;;4921709;29;20207;-62
2022/02/01 02:19:35;;;;;;;2.22;2.03;;;6.90;99.90;;;;;;4919105;29;20207;-64
2022/02/01 02:22:09;;;;;;;1.52;1.40;;;6.90;99.90;;;;;;4923025;29;20203;-62
2022/02/01 02:24:42;;;;;;;3.40;1.58;;;6.90;99.90;;;;;;4910388;29;20259;-62
2022/02/01 02:27:13;;;;;;;1.95;1.23;;;6.90;99.90;;;;;;4917408;29;20302;-62
2022/02/01 02:29:44;;;;;;;1.85;1.08;;;6.90;99.90;;;;;;4922307;29;20229;-62
2022/02/01 02:32:15;;;;;;;1.98;1.00;;;6.80;99.90;;;;;;4924691;29;20233;-59
2022/02/01 02:34:46;;;;;;;2.53;0.95;;;6.80;99.90;;;;;;4913798;29;20214;-57
2022/02/01 02:37:27;;;;;;;1.33;1.20;;;6.70;99.90;;;;;;4915612;29;20199;-62
2022/02/01 02:40:15;;;;;;;1.50;1.35;;;6.70;99.90;;;;;;4908527;29;20210;-61
2022/02/01 02:45:34;;;;;;;2.17;1.35;;;6.70;99.90;;;;;;4901778;29;20206;-62
2022/02/01 02:48:05;;;;;;;2.95;1.70;;;6.60;99.90;;;;;;4912501;29;20262;-63
2022/02/01 02:50:37;;;;;;;3.20;1.77;;;6.50;99.90;;;;;;4924240;29;20210;-64
2022/02/01 02:53:09;;;;;;;1.60;1.40;;;6.50;99.90;;;;;;4916689;29;20659;-60
2022/02/01 02:55:40;;;;;;;1.45;1.35;;;6.40;99.90;;;;;;4925033;29;20190;-60
2022/02/01 02:58:11;;;;;;;3.67;1.60;;;6.30;99.90;;;;;;4926160;29;20269;-64
2022/02/01 03:00:43;;;;;;;3.53;1.67;;;6.30;99.90;;;;;;4916306;29;20247;-58
2022/02/01 03:03:14;;;;;;;2.90;1.60;;;6.20;99.90;;;;;;4915102;29;20207;-59
2022/02/01 03:05:45;;;;;;;5.47;2.08;;;6.20;99.90;;;;;;4916883;29;20568;-60
2022/02/01 03:08:17;;;;;;;3.72;1.70;;;6.20;99.90;;;;;;4913937;29;20235;-58
2022/02/01 03:10:48;;;;;;;3.13;1.92;;;6.10;99.90;;;;;;4918701;29;20203;-59
2022/02/01 03:13:23;;;;;;;3.60;2.20;;;6.10;99.90;;;;;;4921982;29;20210;-56
2022/02/01 03:15:59;;;;;;;3.67;1.85;;;6.00;99.90;;;;;;4925561;29;20218;-56
2022/02/01 03:21:18;;;;;;;6.18;2.50;;;5.80;99.90;;;;;;4917088;29;20211;-61
2022/02/01 03:23:50;;;;;;;4.47;2.10;;;5.80;99.90;;;;;;4917873;29;20226;-58
2022/02/01 03:26:21;;;;;;;2.88;2.58;;;5.80;99.90;;;;;;4918791;29;20290;-55
2022/02/01 03:28:53;;;;;;;6.05;2.30;;;5.70;99.90;;;;;;4923386;29;20228;-58
2022/02/01 03:31:24;;;;;;;3.42;2.05;;;5.60;99.90;;;;;;4917546;29;20289;-57
2022/02/01 03:33:55;;;;;;;6.22;2.58;;;5.60;99.90;;;;;;4914709;29;20216;-59
2022/02/01 03:36:26;;;;;;;5.18;2.55;;;5.60;99.90;;;;;;4917409;29;21034;-61
2022/02/01 03:39:00;;;;;;;4.07;2.83;;;5.50;99.90;;;;;;4915299;29;20209;-56
2022/02/01 03:41:33;;;;;;;4.35;2.80;;;5.50;99.90;;;;;;4919436;29;20863;-57
2022/02/01 03:44:06;;;;;;;3.28;2.50;;;5.50;99.90;;;;;;4911308;29;20567;-57
2022/02/01 03:46:38;;;;;;;3.65;2.60;;;5.40;99.90;;;;;;4918235;29;20202;-55
2022/02/01 03:49:09;;;;;;;3.30;2.70;;;5.30;99.90;;;;;;4916947;29;20246;-55
2022/02/01 03:51:40;;;;;;;3.47;2.53;;;5.30;99.90;;;;;;4919588;29;20262;-54
2022/02/01 03:54:12;;;;;;;4.43;3.03;;;5.20;99.90;;;;;;4925288;29;20219;-54
2022/02/01 03:56:43;;;;;;;4.55;3.20;;;5.20;99.90;;;;;;4919926;29;20207;-54
2022/02/01 03:59:14;;;;;;;6.75;4.80;;;5.20;99.90;;;;;;4916094;29;20188;-54
2022/02/01 04:01:44;;;;;;;7.05;4.55;;;5.20;99.90;;;;;;4915744;29;20207;-55
2022/02/01 04:04:20;;;;;;;4.80;4.30;;;5.10;99.90;;;;;;4926921;29;20210;-54
2022/02/01 04:06:53;;;;;;;7.25;5.03;;;5.10;99.90;;;;;;4918494;29;20220;-57
2022/02/01 04:09:26;;;;;;;5.20;4.50;;;5.10;99.90;;;;;;4920517;29;20282;-59
2022/02/01 04:11:59;;;;;;;5.63;4.30;;;5.00;99.90;;;;;;4916371;29;20203;-59
2022/02/01 04:14:34;;;;;;;4.82;3.90;;;4.90;99.90;;;;;;4924775;29;20187;-59
2022/02/01 04:17:07;;;;;;;7.82;4.75;;;4.90;99.90;;;;;;4917138;29;20213;-56
2022/02/01 04:19:39;;;;;;;4.88;3.85;;;4.80;99.90;;;;;;4920051;29;20303;-57
2022/02/01 04:22:11;;;;;;;6.13;4.18;;;4.70;99.90;;;;;;4919143;29;20217;-57
2022/02/01 04:24:45;;;;;;;7.30;4.25;;;4.60;99.90;;;;;;4916081;29;20245;-57
2022/02/01 04:27:30;;;;;;;5.05;3.90;;;4.60;99.90;;;;;;4922357;29;20760;-57
2022/02/01 04:30:07;;;;;;;5.55;3.70;;;4.60;99.90;;;;;;4921515;29;20249;-53
2022/02/01 04:32:40;;;;;;;7.03;4.35;;;4.50;99.90;;;;;;4924987;29;20203;-56
2022/02/01 04:35:13;;;;;;;6.38;4.60;;;4.60;99.90;;;;;;4923182;29;20215;-57
2022/02/01 04:37:44;;;;;;;5.13;4.72;;;4.60;99.90;;;;;;4916824;29;20729;-59
2022/02/01 04:40:19;;;;;;;4.40;4.00;;;4.50;99.90;;;;;;4918287;29;20302;-58
2022/02/01 04:42:50;;;;;;;6.97;4.72;;;4.50;99.90;;;;;;4920969;29;20229;-60
2022/02/01 04:45:23;;;;;;;9.10;4.82;;;4.40;99.90;;;;;;4922975;29;20204;-59
2022/02/01 04:47:55;;;;;;;6.55;4.90;;;4.40;99.90;;;;;;4922029;29;20282;-60
2022/02/01 04:50:28;;;;;;;6.30;5.03;;;4.40;99.90;;;;;;4917964;29;20672;-59
2022/02/01 04:52:59;;;;;;;6.25;5.30;;;4.40;99.90;;;;;;4917126;29;20230;-60
2022/02/01 04:55:48;;;;;;;6.60;5.75;;;4.30;99.90;;;;;;4919809;29;20203;-56
2022/02/01 04:58:19;;;;;;;7.80;5.70;;;4.20;99.90;;;;;;4920648;29;20245;-58
2022/02/01 05:00:50;;;;;;;8.02;5.55;;;4.10;99.90;;;;;;4920652;29;20295;-56
2022/02/01 05:03:21;;;;;;;7.40;5.00;;;4.10;99.90;;;;;;4922344;29;20218;-56
2022/02/01 05:05:53;;;;;;;6.18;5.32;;;4.00;99.90;;;;;;4924568;29;20283;-58
2022/02/01 05:08:26;;;;;;;6.80;5.15;;;4.00;99.90;;;;;;4922159;29;20202;-54
2022/02/01 05:10:59;;;;;;;4.53;4.05;;;4.00;99.90;;;;;;4923464;29;20210;-58
2022/02/01 05:16:43;;;;;;;6.43;5.10;;;3.90;99.90;;;;;;4878301;29;20208;-59
2022/02/01 05:19:24;;;;;;;7.35;6.47;;;3.90;99.90;;;;;;4873751;29;20208;-60
2022/02/01 05:21:55;;;;;;;6.15;5.47;;;4.00;99.90;;;;;;4884948;29;20607;-61
2022/02/01 05:24:25;;;;;;;7.93;5.20;;;4.00;99.90;;;;;;4880326;29;20212;-56
2022/02/01 05:26:59;;;;;;;5.88;5.25;;;4.20;99.90;;;;;;4880124;29;20317;-57
2022/02/01 05:29:30;;;;;;;7.60;5.78;;;4.30;99.90;;;;;;4886493;29;20243;-56
2022/02/01 05:32:06;;;;;;;7.28;6.57;;;4.40;99.90;;;;;;4884576;29;20248;-58
2022/02/01 05:34:36;;;;;;;7.93;5.80;;;4.40;99.90;;;;;;4886743;29;20203;-59
2022/02/01 05:37:07;;;;;;;9.32;5.00;;;4.60;99.90;;;;;;4885531;29;20246;-59
2022/02/01 05:39:38;;;;;;;6.15;4.53;;;4.60;99.90;;;;;;4886774;29;20204;-56
2022/02/01 05:42:16;;;;;;;5.68;5.13;;;4.60;99.90;;;;;;4882801;29;20665;-59
2022/02/01 05:44:47;;;;;;;6.60;4.60;;;4.70;99.90;;;;;;4886618;29;20319;-60
2022/02/01 05:47:18;;;;;;;7.40;4.80;;;4.70;99.90;;;;;;4886875;29;20237;-57
2022/02/01 05:49:49;;;;;;;6.53;5.10;;;4.80;99.90;;;;;;4886485;29;20246;-60
2022/02/01 05:52:20;;;;;;;5.40;4.40;;;4.90;99.90;;;;;;4908159;29;20394;-58
2022/02/01 05:54:51;;;;;;;5.55;4.65;;;4.90;99.90;;;;;;4919810;29;20199;-57
2022/02/01 05:57:25;;;;;;;8.45;5.75;;;5.00;99.90;;;;;;4924730;29;20333;-59
2022/02/01 05:59:57;;;;;;;5.10;4.60;;;5.10;99.90;;;;;;4915842;29;20815;-58
2022/02/01 06:02:28;;;;;;;4.75;4.30;;;5.10;99.90;;;;;;4915933;29;20284;-59
2022/02/01 06:04:59;;;;;;;9.55;5.57;;;5.10;99.90;;;;;;4916245;29;20326;-54
2022/02/01 06:07:31;;;;;;;8.70;5.63;;;5.10;99.90;;;;;;4914920;29;20202;-59
2022/02/01 06:10:01;;;;;;;6.90;5.60;;;5.10;99.90;;;;;;4917980;29;20219;-56
2022/02/01 06:12:42;;;;;;;8.70;5.95;;;5.00;99.90;;;;;;4915731;29;20199;-59
2022/02/01 06:15:14;;;;;;;10.02;6.57;;;4.80;99.90;;;;;;4913450;29;20199;-58
2022/02/01 06:17:45;;;;;;;10.35;5.80;;;4.80;99.90;;;;;;4921451;29;20213;-58
2022/02/01 06:20:16;;;;;;;8.18;6.35;;;4.60;99.90;;;;;;4921268;29;20202;-59
2022/02/01 06:22:47;;;;;;;7.80;6.20;;;4.50;99.90;;;;;;4924063;29;20199;-57
2022/02/01 06:25:31;;;;;;;6.22;5.68;;;4.50;99.90;;;;;;4922136;29;20206;-59
2022/02/01 06:28:05;;;;;;;8.02;6.05;;;4.50;99.90;;;;;;4926224;29;20210;-59
2022/02/01 06:30:35;;;;;;;8.80;7.63;;;4.50;99.90;;;;;;4911369;29;20233;-57
2022/02/01 06:33:06;;;;;;;7.70;6.90;;;4.50;99.90;;;;;;4919301;29;20274;-57
2022/02/01 06:35:38;;;;;;;8.80;6.30;;;4.50;99.90;;;;;;4917126;29;20203;-58
2022/02/01 06:38:10;;;;;;;8.57;6.10;;;4.60;99.90;;;;;;4912042;29;20211;-57
2022/02/01 06:40:43;;;;;;;7.10;6.40;;;4.60;99.90;;;;;;4919663;29;20206;-56
2022/02/01 06:43:17;;;;;;;8.23;6.65;;;4.60;99.90;;;;;;4921100;29;20274;-58
2022/02/01 06:45:48;;;;;;;8.20;6.10;;;4.60;99.90;;;;;;4913756;29;20221;-59
2022/02/01 06:48:18;;;;;;;8.45;6.90;;;4.60;99.90;;;;;;4924949;29;20207;-59
2022/02/01 06:50:49;;;;;;;6.00;5.50;;;4.70;99.90;;;;;;4919053;29;20244;-59
2022/02/01 06:53:21;;;;;;;9.30;6.22;;;4.80;99.90;;;;;;4919733;29;20318;-58
2022/02/01 06:56:05;;;;;;;7.35;5.70;;;4.90;99.90;;;;;;4919747;29;20205;-58
2022/02/01 06:58:37;;;;;;;6.70;6.00;;;4.90;99.90;;;;;;4913856;29;20295;-59
2022/02/01 07:01:08;;;;;;;6.80;6.10;;;4.90;99.90;;;;;;4912511;29;20206;-57
2022/02/01 07:03:39;;;;;;;8.52;6.45;;;4.90;99.90;;;;;;4919886;29;20225;-56
2022/02/01 07:06:12;;;;;;;8.82;5.78;;;4.90;99.90;;;;;;4916828;29;20213;-58
2022/02/01 07:08:46;;;;;;;11.52;6.50;;;5.10;99.90;;;;;;4913517;29;20207;-58
2022/02/01 07:11:19;;;;;;;6.72;6.07;;;5.00;99.90;;;;;;4922414;29;20236;-58
2022/02/01 07:13:52;;;;;;;8.20;5.93;;;5.00;99.90;;;;;;4921138;29;20258;-58
2022/02/01 07:16:23;;;;;;;6.75;6.07;;;5.00;99.90;;;;;;4917100;29;20659;-59
2022/02/01 07:18:57;;;;;;;7.07;5.72;;;5.00;99.90;;;;;;4923797;29;20206;-59
2022/02/01 07:21:29;;;;;;;6.68;6.05;;;5.10;99.90;;;;;;4920435;29;20212;-59
2022/02/01 07:24:02;;;;;;;7.63;6.00;;;5.20;99.90;;;;;;4918162;29;20214;-57
2022/02/01 07:26:32;;;;;;;6.65;5.90;;;5.20;99.90;;;;;;4921822;29;20545;-57
2022/02/01 07:29:05;;;;;;;8.43;6.55;;;5.20;99.90;;;;;;4925387;29;20199;-58
2022/02/01 07:31:37;;;;;;;8.90;6.28;;;5.40;99.90;;;;;;4916821;29;20254;-58
2022/02/01 07:34:08;;;;;;;8.43;6.45;;;5.40;99.90;;;;;;4919242;29;20300;-58
2022/02/01 07:36:38;;;;;;;6.82;6.13;;;5.40;99.90;;;;;;4928155;29;20290;-58
2022/02/01 07:39:09;;;;;;;8.77;6.70;;;5.30;99.90;;;;;;4927691;29;20233;-56
2022/02/01 07:41:40;;;;;;;8.00;5.90;;;5.30;99.90;;;;;;4923796;29;20222;-59
2022/02/01 07:44:13;;;;;;;6.25;5.63;;;5.40;99.90;;;;;;4928255;29;20223;-55
2022/02/01 07:46:44;;;;;;;6.65;6.05;;;5.40;99.90;;;;;;4927536;29;20278;-57
2022/02/01 07:49:18;;;;;;;8.20;6.78;;;5.40;99.90;;;;;;4918347;29;20323;-57
2022/02/01 07:51:48;;;;;;;8.45;7.65;;;5.40;99.90;;;;;;4918437;29;20249;-59
2022/02/01 07:54:19;;;;;;;6.40;5.75;;;5.40;99.90;;;;;;4920035;29;20309;-59
2022/02/01 07:56:50;;;;;;;8.68;6.70;;;5.50;99.90;;;;;;4927156;29;20230;-60
2022/02/01 07:59:22;;;;;;;9.07;6.80;;;5.50;99.90;;;;;;4924761;29;20222;-59
2022/02/01 08:01:53;;;;;;;8.88;6.80;;;5.60;99.90;;;;;;4926881;29;20570;-59
2022/02/01 08:04:25;;;;;;;9.32;7.05;;;5.60;99.90;;;;;;4926587;29;20242;-59
2022/02/01 08:06:56;;;;;;;8.07;5.75;;;5.60;99.90;;;;;;4916560;29;20212;-57
2022/02/01 08:09:33;;;;;;;8.07;6.80;;;5.50;99.90;;;;;;4924907;29;20266;-59
2022/02/01 08:12:11;;;;;;;7.55;6.70;;;5.50;99.90;;;;;;4927781;29;20313;-59
2022/02/01 08:15:42;;;;;;;13.68;6.45;;;5.50;99.90;;;;;;4917416;29;20222;-57
2022/02/01 08:17:51;;;;;;;7.97;6.82;;;5.60;99.90;;;;;;4928879;29;20213;-59
2022/02/01 08:20:25;;;;;;;7.97;7.15;;;5.60;99.90;;;;;;4918393;29;20217;-59
2022/02/01 08:23:03;;;;;;;9.50;7.25;;;5.50;99.90;;;;;;4917375;29;20365;-58
2022/02/01 08:25:34;;;;;;;8.60;7.55;;;5.50;99.90;;;;;;4916021;29;20283;-59
2022/02/01 08:28:06;;;;;;;7.43;6.72;;;5.60;99.90;;;;;;4920848;29;20206;-59
2022/02/01 08:30:39;;;;;;;10.45;9.00;;;5.60;99.90;;;;;;4928022;29;20236;-59
2022/02/01 08:33:10;;;;;;;9.73;8.32;;;5.50;99.90;;;;;;4927240;29;20625;-55
2022/02/01 08:35:40;;;;;;;10.05;7.68;;;5.40;99.90;;;;;;4917128;29;20213;-57
2022/02/01 08:38:21;;;;;;;8.38;7.47;;;5.40;99.90;;;;;;4920052;29;20270;-57
2022/02/01 08:40:51;;;;;;;9.45;8.57;;;5.50;99.90;;;;;;4920090;29;20214;-58
2022/02/01 08:43:22;;;;;;;12.43;9.20;;;5.50;99.90;;;;;;4917039;29;20207;-58
2022/02/01 08:45:55;;;;;;;11.80;8.70;;;5.60;99.90;;;;;;4925621;29;20222;-56
2022/02/01 08:48:26;;;;;;;11.23;9.70;;;5.60;99.90;;;;;;4927112;29;20190;-57
2022/02/01 08:51:04;;;;;;;13.60;9.35;;;5.60;99.90;;;;;;4914211;29;20309;-57
2022/02/01 08:53:46;;;;;;;9.45;8.55;;;5.70;99.90;;;;;;4918190;29;20248;-58
2022/02/01 08:59:21;;;;;;;9.43;8.43;;;5.60;99.90;;;;;;4908983;29;20270;-58
2022/02/01 09:01:54;;;;;;;11.70;8.75;;;5.50;99.90;;;;;;4912143;29;20286;-58
2022/02/01 09:04:25;;;;;;;10.20;7.70;;;5.40;99.90;;;;;;4923006;29;20295;-59
2022/02/01 09:06:58;;;;;;;8.90;7.97;;;5.20;99.90;;;;;;4926582;29;20198;-58
2022/02/01 09:09:30;;;;;;;7.05;6.45;;;5.10;99.90;;;;;;4925518;29;20199;-57
2022/02/01 09:12:01;;;;;;;8.55;6.13;;;5.10;99.90;;;;;;4923318;29;20230;-59
2022/02/01 09:14:32;;;;;;;7.70;7.00;;;5.10;99.90;;;;;;4926626;29;20211;-59
2022/02/01 09:17:06;;;;;;;8.70;7.68;;;5.10;99.90;;;;;;4927155;29;20199;-56
2022/02/01 09:19:38;;;;;;;7.88;7.07;;;5.10;99.90;;;;;;4926730;29;20225;-56
2022/02/01 09:22:08;;;;;;;7.20;6.20;;;5.10;99.90;;;;;;4926120;29;20220;-57
2022/02/01 09:24:40;;;;;;;6.43;5.82;;;5.10;99.90;;;;;;4923352;29;20191;-59
2022/02/01 09:27:13;;;;;;;6.35;5.05;;;5.10;99.90;;;;;;4923765;29;20211;-57
2022/02/01 09:29:44;;;;;;;8.85;6.47;;;4.90;99.90;;;;;;4914928;29;20206;-58
2022/02/01 09:32:16;;;;;;;7.05;5.35;;;4.90;99.90;;;;;;4914743;29;20273;-56
2022/02/01 09:35:07;;;;;;;8.20;6.22;;;5.00;99.90;;;;;;4916995;29;20207;-58
2022/02/01 09:37:38;;;;;;;7.00;6.32;;;5.00;99.90;;;;;;4916254;29;20211;-56
2022/02/01 09:40:13;;;;;;;9.15;6.70;;;5.00;99.90;;;;;;4914499;29;20221;-57
2022/02/01 09:42:44;;;;;;;8.57;5.63;;;5.10;99.90;;;;;;4916898;29;20216;-57
2022/02/01 09:45:14;;;;;;;8.52;6.13;;;5.20;99.90;;;;;;4921635;29;20203;-58
2022/02/01 09:48:08;;;;;;;6.38;5.50;;;5.20;99.90;;;;;;4920671;29;20215;-57
2022/02/01 09:50:41;;;;;;;6.20;5.60;;;5.10;99.90;;;;;;4925639;29;20225;-58
2022/02/01 09:53:12;;;;;;;9.15;6.00;;;5.00;99.90;;;;;;4911580;29;20364;-58
2022/02/01 09:55:42;;;;;;;9.05;6.13;;;5.00;99.90;;;;;;4925321;29;20253;-56
2022/02/01 09:58:13;;;;;;;7.00;6.07;;;5.00;99.90;;;;;;4923651;29;20273;-56
2022/02/01 10:00:47;;;;;;;6.80;6.10;;;5.10;99.90;;;;;;4913538;29;20282;-54
2022/02/01 10:03:22;;;;;;;11.93;5.65;;;5.10;99.90;;;;;;4921359;29;20209;-58
2022/02/01 10:06:07;;;;;;;8.70;6.90;;;5.10;99.90;;;;;;4913933;29;20287;-57
2022/02/01 10:08:39;;;;;;;8.45;6.20;;;5.10;99.90;;;;;;4924990;29;20203;-58
2022/02/01 10:11:10;;;;;;;7.82;5.93;;;5.10;99.90;;;;;;4917655;29;20227;-58
2022/02/01 10:13:45;;;;;;;7.95;5.75;;;5.20;99.90;;;;;;4911769;29;20270;-56
2022/02/01 10:16:28;;;;;;;9.35;5.65;;;5.20;99.90;;;;;;4918189;29;20612;-60
2022/02/01 10:19:10;;;;;;;9.57;6.00;;;5.20;99.90;;;;;;4917445;29;20210;-59
2022/02/01 10:21:53;;;;;;;6.60;6.00;;;5.30;99.90;;;;;;4912307;29;20205;-55
2022/02/01 10:24:31;;;;;;;8.43;5.88;;;5.20;99.90;;;;;;4922551;29;20203;-60
2022/02/01 10:27:11;;;;;;;7.85;5.70;;;5.10;99.90;;;;;;4921172;29;20203;-57
2022/02/01 10:30:00;;;;;;;7.90;7.00;;;4.90;99.90;;;;;;4915560;29;20214;-59
2022/02/01 10:32:43;;;;;;;18.00;12.93;;;4.80;99.90;;;;;;4924049;29;20230;-57
2022/02/01 10:35:32;;;;;;;21.45;19.05;;;4.80;99.90;;;;;;4924287;29;20213;-57
2022/02/01 10:38:05;;;;;;;26.42;21.30;;;4.80;99.90;;;;;;4919367;29;20221;-57
2022/02/01 10:40:41;;;;;;;38.20;32.22;;;4.70;99.90;;;;;;4923181;29;20588;-57
2022/02/01 10:43:28;;;;;;;56.88;44.58;;;4.90;99.90;;;;;;4920344;29;20217;-58
2022/02/01 10:46:07;;;;;;;52.80;41.80;;;5.00;99.90;;;;;;4911519;29;20690;-57
2022/02/01 10:48:39;;;;;;;62.22;46.10;;;5.10;99.90;;;;;;4914577;29;20206;-57
2022/02/01 10:51:14;;;;;;;53.92;40.85;;;4.90;99.90;;;;;;4920990;29;20203;-54
2022/02/01 10:53:46;;;;;;;44.80;36.28;;;4.80;99.90;;;;;;4921708;29;20232;-57
2022/02/01 10:56:19;;;;;;;47.50;34.15;;;4.70;99.90;;;;;;4921257;29;20240;-58
2022/02/01 10:58:52;;;;;;;39.30;33.10;;;4.70;99.90;;;;;;4926026;29;20289;-56
2022/02/01 11:01:25;;;;;;;37.88;28.75;;;4.70;99.90;;;;;;4909094;29;20222;-57
2022/02/01 11:04:00;;;;;;;32.67;26.17;;;4.80;99.90;;;;;;4908346;29;20203;-57
2022/02/01 11:06:35;;;;;;;38.00;26.10;;;4.80;99.90;;;;;;4909931;29;20215;-56
2022/02/01 11:09:06;;;;;;;31.77;23.25;;;4.90;99.90;;;;;;4920258;29;20675;-57
2022/02/01 11:11:37;;;;;;;31.05;23.50;;;4.90;99.90;;;;;;4922686;29;20298;-57
2022/02/01 11:14:09;;;;;;;22.50;18.55;;;4.80;99.90;;;;;;4924577;29;20206;-57
2022/02/01 11:16:39;;;;;;;19.90;15.80;;;4.80;99.90;;;;;;4907071;29;20207;-56
2022/02/01 11:19:22;;;;;;;16.17;13.73;;;4.90;99.90;;;;;;4918866;29;20266;-58
2022/02/01 11:21:56;;;;;;;15.30;12.25;;;4.90;99.90;;;;;;4918432;29;20725;-57
2022/02/01 11:24:34;;;;;;;12.02;10.75;;;4.90;99.90;;;;;;4921941;29;20213;-56
2022/02/01 11:27:15;;;;;;;11.07;9.15;;;4.90;99.90;;;;;;4924393;29;20202;-54
2022/02/01 11:32:38;;;;;;;11.98;7.97;;;4.90;99.90;;;;;;4906763;29;20227;-55
2022/02/01 11:35:16;;;;;;;9.25;6.68;;;5.10;99.90;;;;;;4911711;29;20223;-59
2022/02/01 11:38:10;;;;;;;8.98;7.57;;;5.10;99.90;;;;;;4911533;29;20221;-57
2022/02/01 11:40:46;;;;;;;9.57;7.60;;;5.20;99.90;;;;;;4920824;29;20211;-57
2022/02/01 11:43:37;;;;;;;13.50;7.60;;;5.10;99.90;;;;;;4913664;29;20222;-56
2022/02/01 11:46:12;;;;;;;8.32;6.60;;;5.10;99.90;;;;;;4918230;29;20334;-54
2022/02/01 11:48:51;;;;;;;11.98;6.03;;;5.00;99.90;;;;;;4914214;29;20243;-57
2022/02/01 11:51:40;;;;;;;7.55;6.75;;;4.90;99.90;;;;;;4921124;29;20221;-55
2022/02/01 11:54:13;;;;;;;11.00;7.30;;;4.90;99.90;;;;;;4918062;29;20239;-56
2022/02/01 11:56:44;;;;;;;9.18;7.20;;;4.80;99.90;;;;;;4916884;29;20206;-57
2022/02/01 11:59:29;;;;;;;10.63;8.38;;;4.80;99.90;;;;;;4921193;29;20302;-56
2022/02/01 12:02:07;;;;;;;10.95;8.73;;;4.80;99.90;;;;;;4922215;29;20237;-57
2022/02/01 12:04:43;;;;;;;11.38;7.78;;;4.70;99.90;;;;;;4921345;29;20207;-58
2022/02/01 12:07:14;;;;;;;9.10;7.97;;;4.60;99.90;;;;;;4916031;29;20211;-57
2022/02/01 12:09:47;;;;;;;9.27;8.05;;;4.60;99.90;;;;;;4914609;29;20202;-57
2022/02/01 12:12:25;;;;;;;9.07;7.75;;;4.50;99.90;;;;;;4914210;29;20274;-57
2022/02/01 12:14:59;;;;;;;12.30;7.55;;;4.30;99.90;;;;;;4922424;29;20261;-57
2022/02/01 12:17:30;;;;;;;9.40;7.15;;;4.20;99.90;;;;;;4924273;29;20573;-58
2022/02/01 12:20:04;;;;;;;8.07;7.32;;;4.10;99.90;;;;;;4914706;29;20203;-57
2022/02/01 12:22:41;;;;;;;9.95;8.68;;;4.00;99.90;;;;;;4922917;29;20273;-57
2022/02/01 12:25:14;;;;;;;12.93;8.57;;;3.90;99.90;;;;;;4924462;29;20247;-58
2022/02/01 12:27:45;;;;;;;11.07;8.23;;;3.90;99.90;;;;;;4927757;29;20195;-58
2022/02/01 12:30:16;;;;;;;11.18;8.45;;;3.90;99.90;;;;;;4914374;29;20242;-55
2022/02/01 12:32:51;;;;;;;10.13;8.82;;;3.80;99.90;;;;;;4924984;29;20242;-56
2022/02/01 12:35:33;;;;;;;10.30;8.25;;;3.80;99.90;;;;;;4926795;29;20597;-57
2022/02/01 12:38:10;;;;;;;8.40;7.47;;;3.80;99.90;;;;;;4926725;29;20279;-56
2022/02/01 12:40:42;;;;;;;14.75;8.90;;;3.80;99.90;;;;;;4916140;29;20218;-55
2022/02/01 12:43:17;;;;;;;12.27;8.90;;;3.70;99.90;;;;;;4919800;29;20246;-54
2022/02/01 12:45:57;;;;;;;10.60;9.05;;;3.70;99.90;;;;;;4918570;29;20622;-57
2022/02/01 12:48:28;;;;;;;8.75;7.22;;;3.70;99.90;;;;;;4917354;29;20255;-57
2022/02/01 12:51:01;;;;;;;10.02;8.10;;;3.60;99.90;;;;;;4918730;29;20314;-57
2022/02/01 12:53:41;;;;;;;13.07;8.43;;;3.50;99.90;;;;;;4926984;29;20277;-55
2022/02/01 12:56:21;;;;;;;9.20;8.20;;;3.50;99.90;;;;;;4921693;29;20204;-58
2022/02/01 12:58:56;;;;;;;9.88;8.30;;;3.50;99.90;;;;;;4921573;29;20233;-57
2022/02/01 13:01:35;;;;;;;9.38;8.27;;;3.40;99.90;;;;;;4922113;29;20210;-57
2022/02/01 13:04:07;;;;;;;11.82;8.85;;;3.30;99.90;;;;;;4921154;29;20218;-56
2022/02/01 13:06:46;;;;;;;11.23;8.75;;;3.20;99.90;;;;;;4918509;29;20292;-56
2022/02/01 13:15:24;;;;;;;9.63;8.20;;;3.20;99.90;;;;;;4924360;29;20302;-57
2022/02/01 13:18:17;;;;;;;15.55;8.60;;;3.20;99.90;;;;;;4923134;29;20211;-56
2022/02/01 13:21:01;;;;;;;9.88;8.90;;;3.20;99.90;;;;;;4922496;29;20523;-57
2022/02/01 13:23:40;;;;;;;12.95;8.55;;;3.30;99.90;;;;;;4914386;29;20241;-58
2022/02/01 13:26:12;;;;;;;9.85;8.10;;;3.40;99.90;;;;;;4925569;29;20222;-54
2022/02/01 13:29:07;;;;;;;9.15;8.07;;;3.50;99.90;;;;;;4926013;29;21899;-57
2022/02/01 13:31:40;;;;;;;9.50;8.18;;;3.60;99.90;;;;;;4917435;29;20203;-58
2022/02/01 13:34:13;;;;;;;9.63;7.43;;;3.70;99.90;;;;;;4920957;29;20552;-56
2022/02/01 13:36:49;;;;;;;10.38;7.10;;;3.70;99.90;;;;;;4922390;29;20223;-56
2022/02/01 13:39:28;;;;;;;8.57;6.50;;;3.70;99.90;;;;;;4922719;29;20206;-58
2022/02/01 13:42:00;;;;;;;8.07;6.50;;;3.70;99.90;;;;;;4918390;29;20237;-56
2022/02/01 13:44:57;;;;;;;6.28;5.68;;;3.70;99.90;;;;;;4925712;29;20202;-57
2022/02/01 13:47:36;;;;;;;6.55;5.75;;;3.80;99.90;;;;;;4926073;29;20224;-57
2022/02/01 13:50:10;;;;;;;5.75;4.88;;;3.80;99.90;;;;;;4918708;29;20206;-56
2022/02/01 13:52:40;;;;;;;5.30;4.80;;;4.00;99.90;;;;;;4923707;29;20600;-54
2022/02/01 13:55:20;;;;;;;4.85;4.35;;;4.10;99.90;;;;;;4912099;29;20215;-56
2022/02/01 13:57:55;;;;;;;5.57;4.20;;;4.10;99.90;;;;;;4914260;29;20271;-57
2022/02/01 14:00:34;;;;;;;4.35;3.92;;;4.10;99.90;;;;;;4919640;29;20298;-55
2022/02/01 14:03:17;;;;;;;4.13;3.65;;;4.20;99.90;;;;;;4913483;29;20222;-59
2022/02/01 14:06:10;;;;;;;3.95;3.53;;;4.10;99.90;;;;;;4923757;29;20205;-53
2022/02/01 14:08:52;;;;;;;6.57;4.50;;;4.10;99.90;;;;;;4925612;29;20190;-57
2022/02/01 14:11:43;;;;;;;5.05;4.22;;;4.20;99.90;;;;;;4926826;29;21238;-56
2022/02/01 14:14:30;;;;;;;4.15;3.78;;;4.10;99.90;;;;;;4911527;29;20246;-58
2022/02/01 14:23:45;;;;;;;5.18;3.55;;;4.30;99.90;;;;;;4913640;29;20207;-53
2022/02/01 14:26:38;;;;;;;4.20;3.45;;;4.40;99.90;;;;;;4913611;29;20219;-56
2022/02/01 14:32:02;;;;;;;4.20;3.80;;;4.30;99.90;;;;;;4919838;29;20282;-58
2022/02/01 14:32:14;;;;;;;6.20;3.72;;;4.30;99.90;;;;;;4924433;29;20230;-57
2022/02/01 14:34:47;;;;;;;5.40;4.15;;;4.40;99.90;;;;;;4921243;29;20343;-56
2022/02/01 14:37:23;;;;;;;6.85;4.43;;;4.30;99.90;;;;;;4925482;29;20515;-55
2022/02/01 14:43:18;;;;;;;5.85;4.40;;;4.40;99.90;;;;;;4911181;29;20216;-56
2022/02/01 14:45:46;;;;;;;3.90;3.47;;;4.30;99.90;;;;;;4918342;29;20210;-56
2022/02/01 14:48:16;;;;;;;6.40;4.68;;;4.30;99.90;;;;;;4924880;29;20207;-55
2022/02/01 14:50:49;;;;;;;7.22;4.53;;;4.30;99.90;;;;;;4925721;29;20199;-56
2022/02/01 14:53:20;;;;;;;5.32;4.28;;;4.30;99.90;;;;;;4924525;29;20238;-56